Aeroporto :
LOGIN :

Iscrizione | Disclaimer

   EN    FR    IT 

 










Sommario :    VFR   VFR Marginale   IFR   IFR Intensivo   IFR Molto Intensivo
Visibilità : 
Base nubi : 
>= 8 km
>= 3000ft
5 / 8 km
1000 / 3000 ft
1500m / 5 km
500 / 1000 ft
800 / 1500m
200 / 500 ft
< 800m
< 200 ft
Simboli :   Temporali  Nebbia  Neve Forte  Precipitazioni Forti  Vento > 20 kt
SIGMETs :   Varie  Temporali  Ghiacco  Turbolenza  Onda orograficha  Ceneri Vulcaniche






- Altitudine del aeroporto : 65 ft
- Codice IATA : PIK


EGPK - Glasgow Prestwick

ULTIMO METAR :
  • 141820Z 09003KT 9999 FEW025 10/08 Q1006

METARs OBSOLETI :
  • 141750Z 09003KT 9999 FEW025 11/09 Q1006
  • 141720Z 10004KT 9999 FEW026 12/09 Q1006
  • 141650Z 10004KT 9999 FEW026 12/09 Q1006
  • 141620Z 10004KT 9999 FEW026 13/09 Q1006
  • 141550Z 10003KT 9999 FEW026 13/09 Q1006
  • 141520Z 10004KT 9999 FEW026 13/09 Q1006

TAF TAF EGPK
Valido dal 14 a 18 ore il 15 a 18 ore UTC


141700Z 1418/1518 09005KT 9999 SCT025
PROB30 1500/1508 8000



MetMap, La meteo Aeronautica in un colpo d'occhio ! - Copyright ORBIFLY Dicembre 2007 - Disclaimer

ORBIFLY MET'MAP TEAM :

Programmazione e sviluppo : Alexandra Zaïnal
Concezione e sviluppo : Baudouin d'Aumeries
Co-Programmazione e sviluppo : Marc-Olivier Méhu
Supporto tecnico e logistico : Manuel Goepfert
Aiuto per la traduzione : Arnaldo La Scala

Contatto : metmap@orbifly.com




FONTI E CREDITI :

   NOAA